Time;durP1;ratioP1;P1;durP2;ratioP2;P2;SDS_P1;SDS_P2;PMS_P1;PMS_P2;Temp;Humidity;BMP_temperature;BMP_pressure;BME280_temperature;BME280_humidity;BME280_pressure;Samples;Min_cycle;Max_cycle;Signal;HPM_P1;HPM_P2
2022/01/05 00:01:03;;;;;;;3.57;3.10;;;;;;;9.93;56.71;97610.56;4942419;23;20253;-80
2022/01/05 00:03:33;;;;;;;3.87;2.80;;;;;;;9.95;56.59;97609.22;4928979;29;20226;-79
2022/01/05 00:06:01;;;;;;;3.30;2.90;;;;;;;9.86;56.99;97608.13;4930511;29;20178;-80
2022/01/05 00:09:07;;;;;;;3.13;2.90;;;;;;;9.86;57.31;97610.00;4955322;23;20225;-80
2022/01/05 00:11:41;;;;;;;4.20;2.90;;;;;;;9.79;57.42;97601.44;4953575;29;20296;-80
2022/01/05 00:14:16;;;;;;;3.17;2.87;;;;;;;9.77;57.63;97603.56;4956212;23;20229;-80
2022/01/05 00:17:02;;;;;;;3.20;2.90;;;;;;;9.66;57.58;97590.16;4934875;29;20237;-80
2022/01/05 00:19:37;;;;;;;3.87;3.17;;;;;;;9.64;58.16;97599.50;4947273;29;20225;-80
2022/01/05 00:22:09;;;;;;;3.13;2.83;;;;;;;9.51;58.66;97603.50;4942292;29;20233;-80
2022/01/05 00:24:41;;;;;;;3.20;2.90;;;;;;;9.47;58.83;97599.72;4944626;29;20651;-80
2022/01/05 00:27:11;;;;;;;3.30;3.00;;;;;;;9.29;58.95;97600.16;4945965;29;20292;-80
2022/01/05 00:30:00;;;;;;;3.30;3.00;;;;;;;9.26;59.65;97620.22;4931124;29;20221;-80
2022/01/05 00:32:29;;;;;;;4.27;3.40;;;;;;;9.15;59.64;97596.34;4949454;29;20273;-80
2022/01/05 00:35:00;;;;;;;3.80;3.20;;;;;;;9.13;59.60;97607.31;4948311;29;20642;-80
2022/01/05 00:37:28;;;;;;;5.10;3.33;;;;;;;9.01;60.29;97597.88;4947103;29;20236;-80
2022/01/05 00:40:06;;;;;;;4.10;3.17;;;;;;;8.88;61.01;97584.97;4931439;29;20217;-80
2022/01/05 00:42:34;;;;;;;4.37;3.20;;;;;;;8.71;61.06;97575.28;4943953;29;20620;-80
2022/01/05 00:45:04;;;;;;;3.63;3.20;;;;;;;8.71;61.83;97593.97;4944383;29;20552;-80
2022/01/05 00:47:31;;;;;;;3.10;2.80;;;;;;;8.66;61.48;97583.25;4927276;29;20229;-80
2022/01/05 00:50:04;;;;;;;3.33;3.03;;;;;;;8.65;61.68;97599.50;4942889;29;20241;-80
2022/01/05 00:52:42;;;;;;;4.23;3.17;;;;;;;8.63;62.30;97615.78;4932266;29;20237;-80
2022/01/05 00:55:13;;;;;;;4.37;3.20;;;;;;;8.55;63.09;97621.59;4944420;29;20253;-80
2022/01/05 00:57:45;;;;;;;3.70;2.90;;;;;;;8.45;63.58;97626.84;4943224;29;20240;-80
2022/01/05 01:00:14;;;;;;;3.50;3.20;;;;;;;8.53;63.55;97647.75;4951361;23;20225;-80
2022/01/05 01:02:45;;;;;;;4.77;3.07;;;;;;;8.46;63.02;97630.31;4964708;29;20228;-80
2022/01/05 01:05:18;;;;;;;4.10;3.17;;;;;;;8.38;64.37;97636.94;4948365;29;20233;-80
2022/01/05 01:07:49;;;;;;;3.70;3.20;;;;;;;8.35;64.16;97646.25;4965785;29;20658;-80
2022/01/05 01:10:17;;;;;;;3.40;3.00;;;;;;;8.35;64.56;97642.78;4952789;23;20225;-80
2022/01/05 01:13:02;;;;;;;4.13;3.30;;;;;;;8.34;64.24;97641.19;4950323;29;20225;-80
2022/01/05 01:15:55;;;;;;;4.40;3.13;;;;;;;8.28;64.91;97647.47;4972088;23;20236;-80
2022/01/05 01:18:27;;;;;;;3.63;3.33;;;;;;;8.29;64.95;97641.94;4955537;29;20212;-80
2022/01/05 01:21:03;;;;;;;3.70;3.37;;;;;;;8.25;65.38;97638.13;4970240;29;20276;-80
2022/01/05 01:23:36;;;;;;;3.53;3.23;;;;;;;8.21;65.42;97626.34;4952427;29;20232;-80
2022/01/05 01:26:12;;;;;;;4.43;3.40;;;;;;;8.24;65.12;97628.50;4971419;29;20629;-80
2022/01/05 01:28:38;;;;;;;4.07;3.40;;;;;;;8.31;65.11;97629.13;4944733;23;20238;-80
2022/01/05 01:31:16;;;;;;;4.33;3.10;;;;;;;8.31;65.03;97628.31;4918028;29;20229;-80
2022/01/05 01:33:44;;;;;;;3.67;3.20;;;;;;;8.28;65.77;97618.13;4982986;23;20217;-79
2022/01/05 01:36:31;;;;;;;3.57;3.17;;;;;;;8.25;65.64;97605.31;4935561;23;20251;-80
2022/01/05 01:39:02;;;;;;;4.40;3.50;;;;;;;8.32;65.87;97612.06;4954556;23;20674;-79
2022/01/05 01:41:29;;;;;;;3.77;3.00;;;;;;;8.34;65.38;97601.16;4976663;23;20237;-79
2022/01/05 01:44:00;;;;;;;3.47;3.03;;;;;;;8.25;65.60;97582.13;4952578;23;20227;-79
2022/01/05 01:46:31;;;;;;;3.60;3.10;;;;;;;8.29;66.14;97590.41;4934552;29;20241;-79
2022/01/05 01:49:45;;;;;;;3.90;2.90;;;;;;;8.35;65.58;97595.53;4941739;23;20292;-80
2022/01/05 01:52:15;;;;;;;3.37;2.93;;;;;;;8.31;65.99;97606.97;4923489;29;20287;-80
2022/01/05 01:54:46;;;;;;;5.13;3.43;;;;;;;8.58;64.87;97606.94;4975679;23;20260;-79
2022/01/05 01:57:14;;;;;;;3.47;3.10;;;;;;;8.65;64.88;97635.03;4957355;29;20213;-80
2022/01/05 01:59:47;;;;;;;5.10;3.50;;;;;;;8.66;65.49;97627.81;4962101;23;20239;-80
2022/01/05 02:02:20;;;;;;;3.87;3.17;;;;;;;8.58;65.76;97628.31;4955219;29;20704;-80
2022/01/05 02:04:48;;;;;;;3.50;3.20;;;;;;;8.54;66.08;97643.22;4953973;29;20283;-80
2022/01/05 02:07:23;;;;;;;4.90;3.53;;;;;;;8.53;66.49;97639.75;4955841;29;20209;-80
2022/01/05 02:09:54;;;;;;;4.17;3.40;;;;;;;8.50;66.63;97636.75;4955855;29;20217;-80
2022/01/05 02:12:27;;;;;;;3.93;3.13;;;;;;;8.48;66.71;97631.69;4948244;23;20245;-80
2022/01/05 02:14:57;;;;;;;4.50;3.57;;;;;;;8.55;67.09;97631.47;4930543;29;20228;-80
2022/01/05 02:17:41;;;;;;;3.63;3.33;;;;;;;8.56;67.05;97628.56;4929387;29;20257;-81
2022/01/05 02:20:31;;;;;;;3.90;3.07;;;;;;;8.57;66.81;97629.34;4946996;29;20629;-80
2022/01/05 02:22:59;;;;;;;4.40;3.10;;;;;;;8.53;67.06;97613.06;4928548;29;20240;-80
2022/01/05 02:25:26;;;;;;;3.80;2.90;;;;;;;8.58;67.02;97622.97;4936798;29;20233;-80
2022/01/05 02:27:55;;;;;;;3.80;3.10;;;;;;;8.62;67.03;97632.88;4944580;29;20233;-80
2022/01/05 02:30:33;;;;;;;4.17;3.43;;;;;;;8.66;67.46;97630.50;4931381;29;20395;-80
2022/01/05 02:33:00;;;;;;;3.47;3.17;;;;;;;8.61;67.00;97607.25;4929673;29;20252;-80
2022/01/05 02:35:27;;;;;;;4.43;3.30;;;;;;;8.64;67.28;97613.91;4930407;29;20244;-80
2022/01/05 02:37:55;;;;;;;3.40;2.80;;;;;;;8.52;67.45;97598.09;4913329;29;20229;-80
2022/01/05 02:40:23;;;;;;;3.77;3.33;;;;;;;8.52;67.70;97598.09;4912836;29;20628;-80
2022/01/05 02:42:56;;;;;;;3.83;3.10;;;;;;;8.57;67.96;97616.81;4916096;29;20221;-80
2022/01/05 02:45:23;;;;;;;3.40;3.00;;;;;;;8.56;67.43;97607.19;4929405;29;20269;-80
2022/01/05 02:47:52;;;;;;;3.30;2.97;;;;;;;8.54;67.34;97595.19;4929199;29;20271;-80
2022/01/05 02:50:20;;;;;;;3.63;3.00;;;;;;;8.66;67.10;97609.94;4915252;29;20230;-80
2022/01/05 02:52:49;;;;;;;3.87;3.20;;;;;;;8.60;67.33;97607.47;4930900;29;20243;-80
2022/01/05 02:55:16;;;;;;;4.33;2.77;;;;;;;8.73;67.34;97610.53;4930647;29;20229;-80
2022/01/05 02:57:43;;;;;;;4.30;3.20;;;;;;;8.64;67.72;97612.06;4913469;29;20236;-80
2022/01/05 03:00:16;;;;;;;3.90;3.17;;;;;;;8.72;68.01;97608.13;4928535;29;20256;-80
2022/01/05 03:02:44;;;;;;;4.07;2.87;;;;;;;8.73;68.21;97609.72;4951683;23;20252;-81
2022/01/05 03:05:13;;;;;;;3.13;2.10;;;;;;;8.75;69.31;97608.41;4915635;29;20226;-81
2022/01/05 03:07:42;;;;;;;4.10;2.80;;;;;;;8.75;69.01;97610.28;4911213;23;20205;-80
2022/01/05 03:10:11;;;;;;;2.50;2.10;;;;;;;8.77;69.12;97605.50;4911342;29;20234;-81
2022/01/05 03:12:48;;;;;;;2.77;2.53;;;;;;;8.76;69.65;97618.03;4937970;23;20587;-80
2022/01/05 03:15:15;;;;;;;2.80;2.37;;;;;;;8.69;69.74;97617.44;4928464;23;20218;-79
2022/01/05 03:17:45;;;;;;;3.43;2.70;;;;;;;8.70;69.80;97623.59;4930091;29;20244;-80
2022/01/05 03:20:14;;;;;;;3.33;2.70;;;;;;;8.74;69.77;97635.34;4913092;29;20232;-79
2022/01/05 03:22:42;;;;;;;3.20;2.90;;;;;;;8.72;69.61;97630.28;4928605;23;20525;-80
2022/01/05 03:25:18;;;;;;;3.53;3.23;;;;;;;8.69;69.59;97622.78;4904405;23;20231;-80
2022/01/05 03:27:51;;;;;;;3.13;2.83;;;;;;;8.68;69.42;97607.81;4949622;29;20280;-80
2022/01/05 03:30:25;;;;;;;3.20;2.90;;;;;;;8.73;69.78;97631.06;4965636;29;20235;-80
2022/01/05 03:35:23;;;;;;;2.60;2.17;;;;;;;8.80;70.85;97621.81;4962484;23;22143;-80
2022/01/05 03:37:50;;;;;;;2.50;2.17;;;;;;;8.84;70.80;97622.91;4951476;23;20236;-80
2022/01/05 03:40:17;;;;;;;2.27;2.07;;;;;;;8.86;71.03;97635.19;4946262;29;20271;-80
2022/01/05 03:42:48;;;;;;;3.37;2.40;;;;;;;8.82;70.98;97632.19;4894407;23;20262;-80
2022/01/05 03:45:17;;;;;;;2.43;2.07;;;;;;;8.76;71.65;97628.72;4890116;29;20262;-80
2022/01/05 03:47:44;;;;;;;1.97;1.60;;;;;;;8.82;72.06;97633.00;4905930;29;20267;-80
2022/01/05 03:50:11;;;;;;;1.90;1.70;;;;;;;8.83;72.70;97645.31;4906393;29;20238;-81
2022/01/05 03:52:41;;;;;;;1.97;1.77;;;;;;;8.83;72.37;97621.28;4906065;29;20309;-80
2022/01/05 03:55:10;;;;;;;2.20;2.00;;;;;;;8.92;72.10;97634.94;4908252;29;20196;-80
2022/01/05 03:57:37;;;;;;;2.23;1.93;;;;;;;8.81;72.86;97631.44;4905626;29;20266;-80
2022/01/05 04:00:10;;;;;;;2.73;1.97;;;;;;;8.80;73.24;97637.81;4907441;29;20203;-81
2022/01/05 04:02:40;;;;;;;2.23;1.90;;;;;;;8.81;72.84;97619.94;4908637;29;20252;-80
2022/01/05 04:05:10;;;;;;;2.57;2.00;;;;;;;8.84;73.19;97625.56;4908017;29;20217;-80
2022/01/05 04:07:37;;;;;;;1.90;1.70;;;;;;;9.01;73.18;97646.75;4906144;29;20654;-80
2022/01/05 04:10:05;;;;;;;2.13;1.70;;;;;;;9.13;73.18;97643.91;4907310;29;20325;-80
2022/01/05 04:12:31;;;;;;;2.07;1.40;;;;;;;9.23;73.31;97649.31;4905998;29;20234;-81
2022/01/05 04:14:59;;;;;;;1.87;1.60;;;;;;;9.07;73.58;97647.59;4891924;29;20237;-80
2022/01/05 04:17:28;;;;;;;2.00;1.47;;;;;;;9.06;74.47;97657.47;4906625;29;20304;-80
2022/01/05 04:19:55;;;;;;;2.80;1.50;;;;;;;9.09;74.64;97654.31;4907025;29;20235;-80
2022/01/05 04:22:22;;;;;;;1.77;1.40;;;;;;;9.06;75.20;97662.81;4923037;23;20248;-80
2022/01/05 04:24:53;;;;;;;1.70;1.60;;;;;;;9.21;74.43;97664.78;4956133;23;20234;-80
2022/01/05 04:27:21;;;;;;;1.70;1.30;;;;;;;9.04;75.23;97670.31;4925691;29;20280;-80
2022/01/05 04:29:51;;;;;;;1.47;1.33;;;;;;;9.03;76.00;97671.34;4924543;29;20226;-80
2022/01/05 04:32:19;;;;;;;1.47;1.10;;;;;;;9.24;74.77;97665.06;4908614;29;20233;-80
2022/01/05 04:35:07;;;;;;;0.90;0.90;;;;;;;9.15;75.26;97684.50;4914327;29;20325;-80
2022/01/05 04:37:56;;;;;;;1.40;1.00;;;;;;;9.07;75.18;97685.00;4941717;23;20228;-80
2022/01/05 04:40:25;;;;;;;1.27;1.17;;;;;;;9.10;75.26;97690.63;4990266;23;20249;-80
2022/01/05 04:42:52;;;;;;;0.90;0.90;;;;;;;9.21;75.04;97694.19;4927820;29;20256;-80
2022/01/05 04:45:19;;;;;;;1.50;1.00;;;;;;;9.28;75.08;97689.44;4925988;29;20739;-80
2022/01/05 04:47:49;;;;;;;0.87;0.87;;;;;;;9.19;75.47;97697.09;4911025;29;20239;-80
2022/01/05 04:50:19;;;;;;;2.20;0.90;;;;;;;9.07;75.51;97688.47;4940380;23;20233;-81
2022/01/05 04:52:48;;;;;;;1.20;1.10;;;;;;;8.97;76.08;97677.72;4946473;29;20233;-80
2022/01/05 04:55:16;;;;;;;2.10;1.20;;;;;;;8.92;76.26;97666.19;4947269;29;20243;-80
2022/01/05 04:57:43;;;;;;;1.43;1.13;;;;;;;9.11;75.73;97662.06;4944972;29;20574;-80
2022/01/05 05:00:13;;;;;;;1.20;1.10;;;;;;;9.16;75.40;97675.44;4946283;29;20288;-80
2022/01/05 05:02:43;;;;;;;1.10;1.00;;;;;;;9.11;75.31;97667.41;4947871;29;20230;-81
2022/01/05 05:05:15;;;;;;;1.13;0.87;;;;;;;9.03;75.16;97667.88;4931902;29;20261;-80
2022/01/05 05:07:43;;;;;;;0.93;0.83;;;;;;;9.07;74.65;97668.97;4933036;29;20242;-80
2022/01/05 05:10:10;;;;;;;0.70;0.70;;;;;;;9.05;74.42;97682.56;4930769;29;20221;-80
2022/01/05 05:12:38;;;;;;;0.37;0.37;;;;;;;9.10;73.26;97687.97;4946790;29;20225;-80
2022/01/05 05:15:07;;;;;;;0.40;0.40;;;;;;;9.28;71.88;97679.53;4932169;23;20286;-80
2022/01/05 05:17:34;;;;;;;0.40;0.40;;;;;;;9.46;69.99;97672.97;4925972;29;20241;-80
2022/01/05 05:20:05;;;;;;;0.87;0.50;;;;;;;9.52;69.61;97679.94;4924661;29;20241;-80
2022/01/05 05:22:35;;;;;;;0.50;0.50;;;;;;;9.61;69.26;97681.03;4923746;29;20238;-80
2022/01/05 05:25:09;;;;;;;0.40;0.40;;;;;;;9.70;69.19;97697.41;4894111;29;20245;-80
2022/01/05 05:27:36;;;;;;;0.40;0.40;;;;;;;9.69;68.80;97691.25;4922566;29;20312;-80
2022/01/05 05:30:23;;;;;;;0.50;0.50;;;;;;;9.73;68.84;97704.91;4923598;29;20230;-80
2022/01/05 05:32:57;;;;;;;0.40;0.40;;;;;;;9.70;68.60;97710.78;4893503;29;20226;-80
2022/01/05 05:35:27;;;;;;;1.10;0.43;;;;;;;9.75;69.02;97734.06;4925716;29;20221;-80
2022/01/05 05:37:55;;;;;;;0.60;0.40;;;;;;;9.70;68.77;97742.88;4924566;29;20248;-80
2022/01/05 05:40:24;;;;;;;0.50;0.40;;;;;;;9.87;68.23;97751.50;4925683;29;20236;-80
2022/01/05 05:42:52;;;;;;;0.60;0.60;;;;;;;9.79;67.68;97745.84;4909326;29;20323;-80
2022/01/05 05:45:21;;;;;;;0.50;0.50;;;;;;;9.82;67.83;97780.91;4908437;29;20241;-80
2022/01/05 05:47:49;;;;;;;0.67;0.53;;;;;;;9.73;67.91;97756.53;4924703;29;20218;-80
2022/01/05 05:50:16;;;;;;;0.50;0.50;;;;;;;9.85;67.27;97758.97;4924056;29;20297;-80
2022/01/05 05:52:43;;;;;;;0.50;0.50;;;;;;;9.76;67.70;97762.41;4892239;29;20551;-80
2022/01/05 05:55:11;;;;;;;0.53;0.53;;;;;;;9.88;66.71;97763.81;4937036;23;20190;-80
2022/01/05 05:57:42;;;;;;;0.40;0.40;;;;;;;9.83;66.50;97771.81;4931013;29;20338;-80
2022/01/05 06:00:11;;;;;;;0.57;0.30;;;;;;;9.89;65.66;97781.47;4938587;23;20241;-80
2022/01/05 06:02:39;;;;;;;0.40;0.40;;;;;;;9.85;65.80;97783.06;4914729;29;20205;-80
2022/01/05 06:05:10;;;;;;;0.30;0.30;;;;;;;9.86;65.83;97786.53;4936509;23;20233;-80
2022/01/05 06:07:38;;;;;;;0.20;0.20;;;;;;;9.95;65.71;97793.00;4926742;29;20238;-80
2022/01/05 06:10:08;;;;;;;0.30;0.30;;;;;;;9.88;66.05;97795.91;4929120;29;20230;-81
2022/01/05 06:12:36;;;;;;;0.20;0.20;;;;;;;9.91;65.58;97791.91;4933923;29;20191;-80
2022/01/05 06:15:12;;;;;;;0.23;0.20;;;;;;;9.86;65.46;97805.25;4931089;29;20230;-80
2022/01/05 06:17:43;;;;;;;0.43;0.40;;;;;;;9.73;66.08;97806.53;4929575;29;20226;-80
2022/01/05 06:20:12;;;;;;;0.40;0.40;;;;;;;9.82;66.12;97799.63;4900161;29;20301;-80
2022/01/05 06:22:43;;;;;;;0.30;0.30;;;;;;;9.65;66.39;97785.63;4931600;29;20233;-80
2022/01/05 06:25:11;;;;;;;0.30;0.30;;;;;;;9.81;65.87;97802.53;4927211;29;20224;-80
2022/01/05 06:27:38;;;;;;;0.60;0.40;;;;;;;9.64;66.46;97803.53;4924821;23;20659;-80
2022/01/05 06:30:08;;;;;;;0.37;0.33;;;;;;;9.56;67.16;97809.38;4942445;23;20576;-80
2022/01/05 06:32:35;;;;;;;0.57;0.50;;;;;;;9.48;67.59;97796.44;4959757;23;20646;-79
2022/01/05 06:35:23;;;;;;;0.60;0.40;;;;;;;9.53;68.49;97806.38;4920980;29;20227;-80
2022/01/05 06:37:52;;;;;;;0.57;0.30;;;;;;;9.48;68.99;97820.50;4954159;29;20225;-80
2022/01/05 06:40:23;;;;;;;0.40;0.40;;;;;;;9.23;69.53;97809.63;4945437;23;20582;-80
2022/01/05 06:42:50;;;;;;;0.30;0.30;;;;;;;9.24;70.44;97824.59;4949124;23;20681;-80
2022/01/05 06:45:17;;;;;;;0.83;0.50;;;;;;;9.08;70.95;97834.34;4906010;29;20558;-80
2022/01/05 06:47:45;;;;;;;1.53;0.40;;;;;;;9.01;70.98;97841.75;4945507;23;20225;-80
2022/01/05 06:50:16;;;;;;;0.40;0.40;;;;;;;8.99;71.17;97851.09;4952771;29;20241;-81
2022/01/05 06:52:59;;;;;;;0.63;0.50;;;;;;;8.86;71.43;97852.31;4975975;23;20260;-80
2022/01/05 06:55:26;;;;;;;0.30;0.30;;;;;;;8.76;71.93;97877.03;4939794;29;20244;-80
2022/01/05 06:57:52;;;;;;;0.40;0.40;;;;;;;8.73;71.74;97876.69;4938223;29;20248;-80
2022/01/05 07:00:24;;;;;;;0.57;0.37;;;;;;;8.75;71.34;97869.25;4973269;29;20275;-80
2022/01/05 07:02:52;;;;;;;0.23;0.23;;;;;;;8.77;69.55;97877.84;4959490;23;20233;-80
2022/01/05 07:05:21;;;;;;;0.40;0.40;;;;;;;8.91;68.71;97883.59;4931849;23;20250;-80
2022/01/05 07:08:12;;;;;;;0.30;0.20;;;;;;;8.68;68.89;97860.63;4976849;23;20236;-80
2022/01/05 07:10:39;;;;;;;0.30;0.30;;;;;;;8.64;69.77;97871.00;4937029;29;20233;-79
2022/01/05 07:13:07;;;;;;;0.20;0.20;;;;;;;8.72;69.28;97872.44;4954897;23;20229;-80
2022/01/05 07:15:44;;;;;;;0.10;0.10;;;;;;;8.70;67.87;97882.56;4948447;29;20234;-80
2022/01/05 07:18:17;;;;;;;0.20;0.10;;;;;;;8.71;66.89;97874.31;4948227;29;20233;-80
2022/01/05 07:20:47;;;;;;;0.10;0.10;;;;;;;8.69;67.37;97864.91;4951361;29;20229;-79
2022/01/05 07:23:16;;;;;;;0.10;0.10;;;;;;;8.57;67.50;97851.72;4948074;29;20723;-81
2022/01/05 07:25:46;;;;;;;0.00;0.00;;;;;;;8.62;67.33;97856.31;4935646;29;20281;-80
2022/01/05 07:28:14;;;;;;;0.20;0.20;;;;;;;8.53;66.93;97844.44;4946189;29;20263;-80
2022/01/05 07:30:41;;;;;;;0.93;0.30;;;;;;;8.66;67.10;97857.41;4948069;29;20248;-80
2022/01/05 07:33:12;;;;;;;0.20;0.20;;;;;;;8.61;66.73;97862.69;4947920;29;20239;-80
2022/01/05 07:35:40;;;;;;;0.10;0.10;;;;;;;8.72;65.26;97862.56;4946164;29;20231;-80
2022/01/05 07:38:07;;;;;;;0.13;0.13;;;;;;;8.59;65.38;97872.81;4942590;23;20660;-80
2022/01/05 07:40:40;;;;;;;0.33;0.20;;;;;;;8.59;65.48;97872.81;4925437;29;20241;-80
2022/01/05 07:43:07;;;;;;;0.17;0.17;;;;;;;8.61;64.55;97868.03;4927538;29;20294;-80
2022/01/05 07:45:37;;;;;;;0.10;0.10;;;;;;;8.68;64.20;97879.31;4913193;29;20281;-80
2022/01/05 07:48:05;;;;;;;0.20;0.20;;;;;;;8.68;64.07;97896.13;4911392;29;20230;-80
2022/01/05 07:50:34;;;;;;;0.10;0.10;;;;;;;8.74;63.26;97899.69;4928878;29;20583;-83
2022/01/05 07:53:03;;;;;;;0.20;0.20;;;;;;;8.58;63.60;97904.06;4930861;29;20186;-82
2022/01/05 07:55:35;;;;;;;0.30;0.30;;;;;;;8.58;63.56;97905.91;4914600;29;20290;-82
2022/01/05 07:58:01;;;;;;;0.10;0.10;;;;;;;8.52;63.06;97890.88;4947268;29;20221;-82
2022/01/05 08:00:33;;;;;;;0.20;0.20;;;;;;;8.53;63.20;97869.28;4956686;23;20281;-82
2022/01/05 08:03:02;;;;;;;0.10;0.10;;;;;;;8.54;63.65;97880.78;4932926;23;20230;-82
2022/01/05 08:05:29;;;;;;;0.10;0.10;;;;;;;8.38;63.30;97879.78;4947201;29;20320;-83
2022/01/05 08:08:03;;;;;;;0.10;0.10;;;;;;;8.52;63.34;97905.03;4949494;29;20318;-82
2022/01/05 08:10:38;;;;;;;0.30;0.30;;;;;;;8.48;63.37;97922.59;4948009;29;20229;-82
2022/01/05 08:13:09;;;;;;;0.10;0.10;;;;;;;8.42;63.94;97931.59;4949957;29;20571;-83
2022/01/05 08:15:35;;;;;;;0.10;0.10;;;;;;;8.49;63.61;97916.19;4945036;29;20237;-83
2022/01/05 08:18:05;;;;;;;0.10;0.10;;;;;;;8.43;63.31;97927.88;4962827;29;20348;-82
2022/01/05 08:20:33;;;;;;;0.20;0.20;;;;;;;8.34;63.53;97922.16;4948540;29;20641;-82
2022/01/05 08:23:03;;;;;;;0.20;0.20;;;;;;;8.45;63.24;97935.59;4948999;29;20213;-82
2022/01/05 08:25:32;;;;;;;0.17;0.17;;;;;;;8.34;63.35;97924.81;4964507;29;20213;-82
2022/01/05 08:28:05;;;;;;;0.87;0.20;;;;;;;8.38;62.92;97949.97;4976225;23;20182;-81
2022/01/05 08:30:35;;;;;;;0.20;0.20;;;;;;;8.34;63.28;97943.50;4948149;29;20233;-83
2022/01/05 08:33:05;;;;;;;0.30;0.20;;;;;;;8.37;63.15;97967.03;4949079;29;20205;-82
2022/01/05 08:35:36;;;;;;;0.77;0.20;;;;;;;8.35;63.35;97977.13;4947154;29;20238;-83
2022/01/05 08:38:06;;;;;;;0.10;0.10;;;;;;;8.38;62.83;97976.66;4938183;23;20238;-82
2022/01/05 08:40:40;;;;;;;0.10;0.10;;;;;;;8.45;62.83;97983.66;4909356;29;20239;-82
2022/01/05 08:43:17;;;;;;;0.10;0.10;;;;;;;8.49;62.53;97977.56;4956424;23;20208;-83
2022/01/05 08:45:47;;;;;;;0.20;0.20;;;;;;;8.47;62.86;97962.88;4927549;29;20240;-83
2022/01/05 08:48:15;;;;;;;0.20;0.20;;;;;;;8.46;63.13;97963.91;4924166;23;20269;-82
2022/01/05 08:50:43;;;;;;;0.20;0.20;;;;;;;8.49;63.35;97974.91;4939536;23;20233;-82
2022/01/05 08:53:12;;;;;;;0.20;0.20;;;;;;;8.47;62.82;97952.19;5017458;23;20227;-82
2022/01/05 08:55:45;;;;;;;0.20;0.20;;;;;;;8.39;62.75;97954.25;4934850;29;20232;-83
2022/01/05 08:58:15;;;;;;;0.20;0.20;;;;;;;8.47;63.96;97958.34;4950822;29;20205;-82
2022/01/05 09:00:50;;;;;;;0.20;0.20;;;;;;;8.52;63.87;97979.78;4952723;29;20195;-82
2022/01/05 09:03:18;;;;;;;0.20;0.20;;;;;;;8.42;64.13;97994.81;4966803;29;20224;-82
2022/01/05 09:05:48;;;;;;;0.13;0.13;;;;;;;8.30;64.37;97994.94;4952625;29;20209;-81
2022/01/05 09:08:17;;;;;;;0.40;0.30;;;;;;;8.32;65.31;98009.63;4935136;29;20275;-81
2022/01/05 09:10:44;;;;;;;0.20;0.20;;;;;;;8.32;64.36;98004.31;4932492;29;20228;-81
2022/01/05 09:13:16;;;;;;;0.20;0.20;;;;;;;8.27;64.22;98003.38;4951698;29;20287;-81
2022/01/05 09:15:43;;;;;;;0.30;0.20;;;;;;;8.22;65.18;98016.63;4940408;23;20245;-80
2022/01/05 09:18:10;;;;;;;0.30;0.30;;;;;;;8.14;64.23;97995.72;4916254;29;20232;-81
2022/01/05 09:20:38;;;;;;;0.10;0.10;;;;;;;8.17;63.88;97995.22;4950129;29;20229;-81
2022/01/05 09:23:07;;;;;;;0.87;0.70;;;;;;;8.18;64.07;97983.50;4949613;29;20218;-81
2022/01/05 09:25:43;;;;;;;0.23;0.23;;;;;;;8.27;64.26;98019.38;4947651;29;20312;-81
2022/01/05 09:28:10;;;;;;;0.30;0.30;;;;;;;8.25;64.75;98014.31;4933889;29;20261;-81
2022/01/05 09:30:40;;;;;;;0.63;0.27;;;;;;;8.31;64.41;98020.53;4948342;29;20229;-81
2022/01/05 09:33:16;;;;;;;0.47;0.30;;;;;;;8.26;64.64;98015.09;4949278;29;20229;-81
2022/01/05 09:35:48;;;;;;;0.27;0.27;;;;;;;8.24;64.92;98018.03;4933030;29;20233;-81
2022/01/05 09:44:08;;;;;;;0.20;0.20;;;;;;;8.25;66.55;98016.16;4926527;29;20226;-80
2022/01/05 09:50:07;;;;;;;0.73;0.30;;;;;;;8.13;67.61;98000.25;4960784;23;20232;-79
2022/01/05 09:52:35;;;;;;;0.40;0.40;;;;;;;8.07;69.63;98006.53;4911740;29;20230;-79
2022/01/05 09:55:04;;;;;;;0.30;0.30;;;;;;;8.07;70.12;98019.88;4934487;23;20212;-79
2022/01/05 09:57:33;;;;;;;0.50;0.40;;;;;;;8.08;70.12;98010.81;4921032;23;20249;-79
2022/01/05 10:00:02;;;;;;;0.20;0.20;;;;;;;8.15;68.16;98006.16;4899836;29;20249;-79
2022/01/05 10:02:38;;;;;;;0.20;0.20;;;;;;;8.14;66.71;98001.84;4931594;29;20319;-79
2022/01/05 10:05:13;;;;;;;0.20;0.20;;;;;;;8.20;65.58;98018.75;4949539;29;20194;-79
2022/01/05 10:07:43;;;;;;;0.10;0.10;;;;;;;8.26;65.95;98009.75;4915727;29;20244;-79
2022/01/05 10:10:14;;;;;;;0.30;0.30;;;;;;;8.19;65.00;98007.28;4954237;23;20606;-82
2022/01/05 10:13:08;;;;;;;0.10;0.10;;;;;;;8.04;65.71;97993.69;4921488;29;20242;-81
2022/01/05 10:15:35;;;;;;;0.10;0.10;;;;;;;8.16;64.81;97994.44;4953337;29;20233;-80
2022/01/05 10:18:18;;;;;;;0.17;0.17;;;;;;;8.29;64.29;97998.63;4935867;29;20192;-80
2022/01/05 10:21:01;;;;;;;0.17;0.10;;;;;;;8.36;64.24;97975.25;4915557;29;20241;-79
2022/01/05 10:23:48;;;;;;;0.20;0.20;;;;;;;8.47;63.86;97985.03;4902646;29;20238;-80
2022/01/05 10:26:38;;;;;;;0.17;0.17;;;;;;;8.54;63.00;97987.53;4917826;29;20190;-80
2022/01/05 10:29:07;;;;;;;0.10;0.10;;;;;;;8.57;62.74;97989.72;4933760;29;20230;-79
2022/01/05 10:31:36;;;;;;;0.10;0.10;;;;;;;8.51;61.74;97985.34;4899731;29;20225;-82
2022/01/05 10:34:31;;;;;;;0.43;0.10;;;;;;;8.62;62.04;97974.56;4915333;29;20233;-81
2022/01/05 10:37:00;;;;;;;0.00;0.00;;;;;;;8.67;61.16;97982.66;4930879;29;20226;-81
2022/01/05 10:39:38;;;;;;;0.10;0.10;;;;;;;8.58;61.27;97996.66;4914772;29;20337;-79
2022/01/05 10:42:15;;;;;;;0.10;0.10;;;;;;;8.61;61.13;97972.94;4921215;23;20234;-81
2022/01/05 10:44:50;;;;;;;0.10;0.10;;;;;;;8.52;61.34;97968.28;4932252;29;20202;-80
2022/01/05 10:47:17;;;;;;;0.10;0.10;;;;;;;8.53;61.04;97952.03;4932742;29;20238;-81
2022/01/05 10:49:45;;;;;;;1.50;0.90;;;;;;;8.45;61.15;97960.44;4931688;29;20214;-81
2022/01/05 10:52:28;;;;;;;1.83;0.40;;;;;;;8.59;61.01;97977.72;4934373;29;20226;-81
2022/01/05 10:55:07;;;;;;;0.20;0.20;;;;;;;8.67;60.22;97971.97;4931694;29;20221;-82
2022/01/05 10:57:34;;;;;;;0.00;0.00;;;;;;;8.53;61.60;97975.25;4911135;29;20231;-81
2022/01/05 11:00:08;;;;;;;0.40;0.23;;;;;;;8.56;61.38;97974.75;4913711;29;20250;-81
2022/01/05 11:02:35;;;;;;;0.10;0.10;;;;;;;8.57;60.93;97961.16;5029010;23;20272;-81
2022/01/05 11:05:14;;;;;;;0.10;0.10;;;;;;;8.52;61.20;97971.75;4955565;29;20241;-81
2022/01/05 11:08:15;;;;;;;0.10;0.10;;;;;;;8.57;60.68;97982.50;4974087;29;20225;-81
2022/01/05 11:10:42;;;;;;;0.20;0.10;;;;;;;8.73;60.68;97999.53;4974921;29;20239;-82
2022/01/05 11:13:16;;;;;;;0.20;0.20;;;;;;;8.71;60.81;97994.44;4955737;29;20183;-81
2022/01/05 11:15:43;;;;;;;0.00;0.00;;;;;;;8.65;60.50;97999.97;4971705;29;20213;-81
2022/01/05 11:18:17;;;;;;;0.20;0.20;;;;;;;8.69;60.66;97996.53;4957373;23;20233;-81
2022/01/05 11:20:49;;;;;;;0.20;0.20;;;;;;;8.68;60.87;98005.59;4962720;23;20674;-81
2022/01/05 11:23:25;;;;;;;0.10;0.10;;;;;;;8.72;60.10;98014.75;4941371;23;20572;-81
2022/01/05 11:26:09;;;;;;;0.10;0.10;;;;;;;8.76;60.21;98017.75;4965595;23;20269;-82
2022/01/05 11:28:37;;;;;;;0.10;0.10;;;;;;;8.65;60.12;98011.44;4963339;23;20656;-82
2022/01/05 11:31:07;;;;;;;0.10;0.10;;;;;;;8.71;59.68;98005.13;4943512;23;20264;-78
2022/01/05 11:33:34;;;;;;;0.47;0.10;;;;;;;8.59;60.41;97995.59;4917594;29;20290;-80
2022/01/05 11:36:07;;;;;;;0.07;0.07;;;;;;;8.75;59.61;97994.75;4962335;23;20260;-80
2022/01/05 11:38:54;;;;;;;0.30;0.10;;;;;;;8.65;59.32;97998.09;4923454;29;20229;-80
2022/01/05 11:41:26;;;;;;;0.20;0.00;;;;;;;8.65;59.83;97989.28;4937992;29;20186;-81
2022/01/05 11:44:00;;;;;;;0.10;0.10;;;;;;;8.66;59.61;98014.94;4937595;29;20186;-81
2022/01/05 11:46:30;;;;;;;0.03;0.03;;;;;;;8.66;59.06;98013.06;4930001;23;20229;-81
2022/01/05 11:49:06;;;;;;;0.10;0.10;;;;;;;8.63;58.82;98002.09;4917945;29;20227;-81
2022/01/05 11:51:48;;;;;;;0.10;0.10;;;;;;;8.64;59.68;98015.16;4949632;29;20310;-81
2022/01/05 11:54:32;;;;;;;0.20;0.20;;;;;;;8.59;59.40;98024.97;4948043;29;20657;-81
2022/01/05 11:57:10;;;;;;;0.07;0.07;;;;;;;8.59;58.94;98020.44;4942201;23;20256;-81
2022/01/05 11:59:42;;;;;;;0.10;0.10;;;;;;;8.56;59.20;98023.59;4921062;23;20231;-80
2022/01/05 12:02:38;;;;;;;0.83;0.20;;;;;;;8.36;60.04;98004.59;4902391;29;20225;-81
2022/01/05 12:05:08;;;;;;;1.27;0.10;;;;;;;8.40;60.09;98006.53;4972062;23;20260;-80
2022/01/05 12:07:39;;;;;;;0.23;0.20;;;;;;;8.44;60.23;98016.75;4937811;29;20663;-81
2022/01/05 12:10:18;;;;;;;0.30;0.30;;;;;;;8.45;59.82;98011.16;4964627;23;20258;-80
2022/01/05 12:13:02;;;;;;;0.20;0.20;;;;;;;8.47;60.06;97997.56;4930991;29;20634;-80
2022/01/05 12:15:43;;;;;;;0.30;0.10;;;;;;;8.58;59.44;98024.19;4942139;23;20236;-81